Terminal Aerodrome Forecast
Issued by NWS Wilmington, OH

Current Version | Previous Version | Text Only | Print | Product List | Glossary Off
Versions: 1 2 3 4 5 6 7 8 9 10 11 12 13 14 15 16 17

523
FTUS41 KILN 192337
TAFCMH
TAF
KCMH 192337Z 2000/2024 10006KT P6SM BKN120
     FM200300 10006KT P6SM VCSH OVC040
     FM200500 10007KT 5SM -RA BR OVC025
      TEMPO 2007/2011 3SM RA BR OVC015
     FM201100 14007KT 3SM -RA BR OVC007
     FM201400 17007KT 4SM BR VCSH OVC005
     FM201600 22008KT P6SM OVC007
     FM202100 21006KT P6SM BKN018=

USA.gov is the U.S. government's official web portal to all federal, state and local government web resources and services.